sensor_id;sensor_type;location;lat;lon;timestamp;temperature;humidity
29353;DHT22;16344;50.364;8.944;2023-10-08T00:02:03;16.70;99.90
29353;DHT22;16344;50.364;8.944;2023-10-08T00:04:32;16.70;99.90
29353;DHT22;16344;50.364;8.944;2023-10-08T00:07:03;16.70;99.90
29353;DHT22;16344;50.364;8.944;2023-10-08T00:09:33;16.80;99.90
29353;DHT22;16344;50.364;8.944;2023-10-08T00:12:05;16.80;99.90
29353;DHT22;16344;50.364;8.944;2023-10-08T00:14:32;16.80;99.90
29353;DHT22;16344;50.364;8.944;2023-10-08T00:16:58;16.70;99.90
29353;DHT22;16344;50.364;8.944;2023-10-08T00:19:23;16.70;99.90
29353;DHT22;16344;50.364;8.944;2023-10-08T00:21:50;16.80;99.90
29353;DHT22;16344;50.364;8.944;2023-10-08T00:24:18;16.70;99.90
29353;DHT22;16344;50.364;8.944;2023-10-08T00:26:43;16.70;99.90
29353;DHT22;16344;50.364;8.944;2023-10-08T00:29:10;16.80;99.90
29353;DHT22;16344;50.364;8.944;2023-10-08T00:31:42;16.70;99.90
29353;DHT22;16344;50.364;8.944;2023-10-08T00:34:13;16.70;99.90
29353;DHT22;16344;50.364;8.944;2023-10-08T00:36:47;16.70;99.90
29353;DHT22;16344;50.364;8.944;2023-10-08T00:39:13;16.70;99.90
29353;DHT22;16344;50.364;8.944;2023-10-08T00:41:41;16.70;99.90
29353;DHT22;16344;50.364;8.944;2023-10-08T00:44:09;16.70;99.90
29353;DHT22;16344;50.364;8.944;2023-10-08T00:46:37;16.70;99.90
29353;DHT22;16344;50.364;8.944;2023-10-08T00:49:23;16.70;99.90
29353;DHT22;16344;50.364;8.944;2023-10-08T00:51:50;16.70;99.90
29353;DHT22;16344;50.364;8.944;2023-10-08T00:54:29;16.60;99.90
29353;DHT22;16344;50.364;8.944;2023-10-08T00:56:58;16.60;99.90
29353;DHT22;16344;50.364;8.944;2023-10-08T00:59:24;16.60;99.90
29353;DHT22;16344;50.364;8.944;2023-10-08T01:01:58;16.70;99.90
29353;DHT22;16344;50.364;8.944;2023-10-08T01:04:29;16.60;99.90
29353;DHT22;16344;50.364;8.944;2023-10-08T01:06:59;16.60;99.90
29353;DHT22;16344;50.364;8.944;2023-10-08T01:09:27;16.60;99.90
29353;DHT22;16344;50.364;8.944;2023-10-08T01:12:20;16.70;99.90
29353;DHT22;16344;50.364;8.944;2023-10-08T01:15:09;16.70;99.90
29353;DHT22;16344;50.364;8.944;2023-10-08T01:17:58;16.70;99.90
29353;DHT22;16344;50.364;8.944;2023-10-08T01:20:26;16.60;99.90
29353;DHT22;16344;50.364;8.944;2023-10-08T01:23:15;16.60;99.90
29353;DHT22;16344;50.364;8.944;2023-10-08T01:25:47;16.60;99.90
29353;DHT22;16344;50.364;8.944;2023-10-08T01:28:27;16.70;99.90
29353;DHT22;16344;50.364;8.944;2023-10-08T01:30:57;16.60;99.90
29353;DHT22;16344;50.364;8.944;2023-10-08T01:33:26;16.60;99.90
29353;DHT22;16344;50.364;8.944;2023-10-08T01:36:03;16.50;99.90
29353;DHT22;16344;50.364;8.944;2023-10-08T01:38:30;16.50;99.90
29353;DHT22;16344;50.364;8.944;2023-10-08T01:40:56;16.50;99.90
29353;DHT22;16344;50.364;8.944;2023-10-08T01:43:22;16.50;99.90
29353;DHT22;16344;50.364;8.944;2023-10-08T01:45:48;16.50;99.90
29353;DHT22;16344;50.364;8.944;2023-10-08T01:48:16;16.50;99.90
29353;DHT22;16344;50.364;8.944;2023-10-08T01:50:47;16.40;99.90
29353;DHT22;16344;50.364;8.944;2023-10-08T01:53:14;16.50;99.90
29353;DHT22;16344;50.364;8.944;2023-10-08T01:55:41;16.50;99.90
29353;DHT22;16344;50.364;8.944;2023-10-08T01:58:17;16.50;99.90
29353;DHT22;16344;50.364;8.944;2023-10-08T02:00:47;16.50;99.90
29353;DHT22;16344;50.364;8.944;2023-10-08T02:03:14;16.50;99.90
29353;DHT22;16344;50.364;8.944;2023-10-08T02:05:46;16.50;99.90
29353;DHT22;16344;50.364;8.944;2023-10-08T02:08:13;16.50;99.90
29353;DHT22;16344;50.364;8.944;2023-10-08T02:10:40;16.50;99.90
29353;DHT22;16344;50.364;8.944;2023-10-08T02:13:07;16.50;99.90
29353;DHT22;16344;50.364;8.944;2023-10-08T02:15:34;16.40;99.90
29353;DHT22;16344;50.364;8.944;2023-10-08T02:17:59;16.40;1.00
29353;DHT22;16344;50.364;8.944;2023-10-08T02:20:25;16.40;1.00
29353;DHT22;16344;50.364;8.944;2023-10-08T02:22:53;16.40;1.00
29353;DHT22;16344;50.364;8.944;2023-10-08T02:25:19;16.40;1.00
29353;DHT22;16344;50.364;8.944;2023-10-08T02:27:44;16.40;1.00
29353;DHT22;16344;50.364;8.944;2023-10-08T02:30:10;16.40;1.00
29353;DHT22;16344;50.364;8.944;2023-10-08T02:32:38;16.30;1.00
29353;DHT22;16344;50.364;8.944;2023-10-08T02:35:08;16.30;1.00
29353;DHT22;16344;50.364;8.944;2023-10-08T02:37:37;16.40;1.00
29353;DHT22;16344;50.364;8.944;2023-10-08T02:40:08;16.40;1.00
29353;DHT22;16344;50.364;8.944;2023-10-08T02:42:43;16.40;1.00
29353;DHT22;16344;50.364;8.944;2023-10-08T02:45:11;16.50;1.00
29353;DHT22;16344;50.364;8.944;2023-10-08T02:47:43;16.40;1.00
29353;DHT22;16344;50.364;8.944;2023-10-08T02:50:12;16.40;1.00
29353;DHT22;16344;50.364;8.944;2023-10-08T02:52:42;16.40;1.00
29353;DHT22;16344;50.364;8.944;2023-10-08T02:55:10;16.50;1.00
29353;DHT22;16344;50.364;8.944;2023-10-08T02:57:48;16.50;99.90
29353;DHT22;16344;50.364;8.944;2023-10-08T03:00:16;16.60;99.90
29353;DHT22;16344;50.364;8.944;2023-10-08T03:02:46;16.60;99.90
29353;DHT22;16344;50.364;8.944;2023-10-08T03:05:12;16.60;99.90
29353;DHT22;16344;50.364;8.944;2023-10-08T03:07:39;16.60;99.90
29353;DHT22;16344;50.364;8.944;2023-10-08T03:10:05;16.50;99.90
29353;DHT22;16344;50.364;8.944;2023-10-08T03:12:35;16.60;99.90
29353;DHT22;16344;50.364;8.944;2023-10-08T03:15:02;16.60;99.90
29353;DHT22;16344;50.364;8.944;2023-10-08T03:17:39;16.60;99.90
29353;DHT22;16344;50.364;8.944;2023-10-08T03:20:10;16.50;99.90
29353;DHT22;16344;50.364;8.944;2023-10-08T03:22:54;16.50;99.90
29353;DHT22;16344;50.364;8.944;2023-10-08T03:25:22;16.50;99.90
29353;DHT22;16344;50.364;8.944;2023-10-08T03:27:50;16.50;99.90
29353;DHT22;16344;50.364;8.944;2023-10-08T03:30:15;16.50;99.90
29353;DHT22;16344;50.364;8.944;2023-10-08T03:32:44;16.50;99.90
29353;DHT22;16344;50.364;8.944;2023-10-08T03:35:21;16.50;99.90
29353;DHT22;16344;50.364;8.944;2023-10-08T03:37:53;16.40;99.90
29353;DHT22;16344;50.364;8.944;2023-10-08T03:40:20;16.40;99.90
29353;DHT22;16344;50.364;8.944;2023-10-08T03:42:48;16.50;99.90
29353;DHT22;16344;50.364;8.944;2023-10-08T03:45:14;16.50;99.90
29353;DHT22;16344;50.364;8.944;2023-10-08T03:47:48;16.60;99.90
29353;DHT22;16344;50.364;8.944;2023-10-08T03:50:28;16.60;99.90
29353;DHT22;16344;50.364;8.944;2023-10-08T03:53:06;16.60;99.90
29353;DHT22;16344;50.364;8.944;2023-10-08T03:55:40;16.50;99.90
29353;DHT22;16344;50.364;8.944;2023-10-08T03:58:09;16.50;99.90
29353;DHT22;16344;50.364;8.944;2023-10-08T04:00:53;16.50;99.90
29353;DHT22;16344;50.364;8.944;2023-10-08T04:03:34;16.50;99.90
29353;DHT22;16344;50.364;8.944;2023-10-08T04:06:20;16.40;99.90
29353;DHT22;16344;50.364;8.944;2023-10-08T04:08:54;16.40;99.90
29353;DHT22;16344;50.364;8.944;2023-10-08T04:11:38;16.30;99.90
29353;DHT22;16344;50.364;8.944;2023-10-08T04:14:22;16.30;99.90
29353;DHT22;16344;50.364;8.944;2023-10-08T04:16:48;16.20;1.00
29353;DHT22;16344;50.364;8.944;2023-10-08T04:19:21;16.10;1.00
29353;DHT22;16344;50.364;8.944;2023-10-08T04:21:50;16.10;1.00
29353;DHT22;16344;50.364;8.944;2023-10-08T04:24:25;16.10;1.00
29353;DHT22;16344;50.364;8.944;2023-10-08T04:26:55;16.10;1.00
29353;DHT22;16344;50.364;8.944;2023-10-08T04:29:24;16.10;1.00
29353;DHT22;16344;50.364;8.944;2023-10-08T04:31:51;16.10;1.00
29353;DHT22;16344;50.364;8.944;2023-10-08T04:34:33;16.00;1.00
29353;DHT22;16344;50.364;8.944;2023-10-08T04:36:59;16.10;1.00
29353;DHT22;16344;50.364;8.944;2023-10-08T04:39:29;16.20;1.00
29353;DHT22;16344;50.364;8.944;2023-10-08T04:41:59;16.10;1.00
29353;DHT22;16344;50.364;8.944;2023-10-08T04:44:31;16.10;1.00
29353;DHT22;16344;50.364;8.944;2023-10-08T04:46:57;16.10;1.00
29353;DHT22;16344;50.364;8.944;2023-10-08T04:49:30;16.00;1.00
29353;DHT22;16344;50.364;8.944;2023-10-08T04:51:58;15.90;1.00
29353;DHT22;16344;50.364;8.944;2023-10-08T04:54:28;15.90;1.00
29353;DHT22;16344;50.364;8.944;2023-10-08T04:56:59;15.90;1.00
29353;DHT22;16344;50.364;8.944;2023-10-08T04:59:28;15.90;1.00
29353;DHT22;16344;50.364;8.944;2023-10-08T05:02:00;16.00;1.00
29353;DHT22;16344;50.364;8.944;2023-10-08T05:04:49;16.00;1.00
29353;DHT22;16344;50.364;8.944;2023-10-08T05:07:14;16.10;1.00
29353;DHT22;16344;50.364;8.944;2023-10-08T05:09:47;16.10;1.00
29353;DHT22;16344;50.364;8.944;2023-10-08T05:12:13;16.10;1.00
29353;DHT22;16344;50.364;8.944;2023-10-08T05:15:00;16.10;1.00
29353;DHT22;16344;50.364;8.944;2023-10-08T05:17:38;16.10;1.00
29353;DHT22;16344;50.364;8.944;2023-10-08T05:20:21;16.10;1.00
29353;DHT22;16344;50.364;8.944;2023-10-08T05:23:12;16.10;1.00
29353;DHT22;16344;50.364;8.944;2023-10-08T05:25:54;16.20;1.00
29353;DHT22;16344;50.364;8.944;2023-10-08T05:28:43;16.10;1.00
29353;DHT22;16344;50.364;8.944;2023-10-08T05:31:29;16.10;1.00
29353;DHT22;16344;50.364;8.944;2023-10-08T05:34:12;16.00;1.00
29353;DHT22;16344;50.364;8.944;2023-10-08T05:36:48;16.00;1.00
29353;DHT22;16344;50.364;8.944;2023-10-08T05:39:37;16.00;1.00
29353;DHT22;16344;50.364;8.944;2023-10-08T05:42:08;16.00;1.00
29353;DHT22;16344;50.364;8.944;2023-10-08T05:44:46;16.00;1.00
29353;DHT22;16344;50.364;8.944;2023-10-08T05:47:16;15.90;1.00
29353;DHT22;16344;50.364;8.944;2023-10-08T05:49:56;15.90;1.00
29353;DHT22;16344;50.364;8.944;2023-10-08T05:52:41;15.90;1.00
29353;DHT22;16344;50.364;8.944;2023-10-08T05:55:17;15.80;1.00
29353;DHT22;16344;50.364;8.944;2023-10-08T05:57:59;15.80;1.00
29353;DHT22;16344;50.364;8.944;2023-10-08T06:00:42;15.90;1.00
29353;DHT22;16344;50.364;8.944;2023-10-08T06:03:17;15.90;1.00
29353;DHT22;16344;50.364;8.944;2023-10-08T06:06:08;16.00;1.00
29353;DHT22;16344;50.364;8.944;2023-10-08T06:08:36;16.10;1.00
29353;DHT22;16344;50.364;8.944;2023-10-08T06:11:20;16.10;1.00
29353;DHT22;16344;50.364;8.944;2023-10-08T06:14:10;16.20;1.00
29353;DHT22;16344;50.364;8.944;2023-10-08T06:16:45;16.10;1.00
29353;DHT22;16344;50.364;8.944;2023-10-08T06:19:12;16.20;1.00
29353;DHT22;16344;50.364;8.944;2023-10-08T06:21:39;16.20;1.00
29353;DHT22;16344;50.364;8.944;2023-10-08T06:24:06;16.20;1.00
29353;DHT22;16344;50.364;8.944;2023-10-08T06:26:36;16.20;1.00
29353;DHT22;16344;50.364;8.944;2023-10-08T06:29:08;16.20;1.00
29353;DHT22;16344;50.364;8.944;2023-10-08T06:31:47;16.30;1.00
29353;DHT22;16344;50.364;8.944;2023-10-08T06:34:17;16.30;1.00
29353;DHT22;16344;50.364;8.944;2023-10-08T06:36:47;16.30;1.00
29353;DHT22;16344;50.364;8.944;2023-10-08T06:39:13;16.20;1.00
29353;DHT22;16344;50.364;8.944;2023-10-08T06:41:44;16.30;1.00
29353;DHT22;16344;50.364;8.944;2023-10-08T06:44:11;16.30;1.00
29353;DHT22;16344;50.364;8.944;2023-10-08T06:46:39;16.40;1.00
29353;DHT22;16344;50.364;8.944;2023-10-08T06:49:07;16.40;1.00
29353;DHT22;16344;50.364;8.944;2023-10-08T06:51:40;16.50;1.00
29353;DHT22;16344;50.364;8.944;2023-10-08T06:54:09;16.50;1.00
29353;DHT22;16344;50.364;8.944;2023-10-08T06:56:42;16.60;1.00
29353;DHT22;16344;50.364;8.944;2023-10-08T06:59:13;16.70;1.00
29353;DHT22;16344;50.364;8.944;2023-10-08T07:01:38;16.80;99.90
29353;DHT22;16344;50.364;8.944;2023-10-08T07:04:08;17.00;99.90
29353;DHT22;16344;50.364;8.944;2023-10-08T07:06:41;17.00;99.90
29353;DHT22;16344;50.364;8.944;2023-10-08T07:09:10;17.10;99.90
29353;DHT22;16344;50.364;8.944;2023-10-08T07:11:57;17.20;99.90
29353;DHT22;16344;50.364;8.944;2023-10-08T07:14:27;17.30;99.90
29353;DHT22;16344;50.364;8.944;2023-10-08T07:16:54;17.30;99.90
29353;DHT22;16344;50.364;8.944;2023-10-08T07:19:21;17.30;99.90
29353;DHT22;16344;50.364;8.944;2023-10-08T07:21:49;17.30;99.90
29353;DHT22;16344;50.364;8.944;2023-10-08T07:24:19;17.20;99.90
29353;DHT22;16344;50.364;8.944;2023-10-08T07:26:47;17.30;99.90
29353;DHT22;16344;50.364;8.944;2023-10-08T07:29:15;17.30;99.90
29353;DHT22;16344;50.364;8.944;2023-10-08T07:31:45;17.40;99.90
29353;DHT22;16344;50.364;8.944;2023-10-08T07:34:15;17.50;99.90
29353;DHT22;16344;50.364;8.944;2023-10-08T07:36:46;17.50;99.90
29353;DHT22;16344;50.364;8.944;2023-10-08T07:39:18;17.40;99.90
29353;DHT22;16344;50.364;8.944;2023-10-08T07:42:05;17.50;99.90
29353;DHT22;16344;50.364;8.944;2023-10-08T07:44:31;17.40;99.90
29353;DHT22;16344;50.364;8.944;2023-10-08T07:46:57;17.50;99.90
29353;DHT22;16344;50.364;8.944;2023-10-08T07:49:26;17.50;99.90
29353;DHT22;16344;50.364;8.944;2023-10-08T07:51:56;17.50;99.90
29353;DHT22;16344;50.364;8.944;2023-10-08T07:54:23;17.50;99.90
29353;DHT22;16344;50.364;8.944;2023-10-08T07:56:55;17.60;99.90
29353;DHT22;16344;50.364;8.944;2023-10-08T07:59:45;17.60;99.90
29353;DHT22;16344;50.364;8.944;2023-10-08T08:02:15;17.60;99.90
29353;DHT22;16344;50.364;8.944;2023-10-08T08:04:43;17.70;99.90
29353;DHT22;16344;50.364;8.944;2023-10-08T08:07:11;17.80;99.90
29353;DHT22;16344;50.364;8.944;2023-10-08T08:09:48;17.80;99.90
29353;DHT22;16344;50.364;8.944;2023-10-08T08:12:18;18.00;99.90
29353;DHT22;16344;50.364;8.944;2023-10-08T08:14:44;18.10;99.90
29353;DHT22;16344;50.364;8.944;2023-10-08T08:17:10;18.10;99.90
29353;DHT22;16344;50.364;8.944;2023-10-08T08:19:40;18.10;99.90
29353;DHT22;16344;50.364;8.944;2023-10-08T08:22:05;18.10;99.90
29353;DHT22;16344;50.364;8.944;2023-10-08T08:24:31;18.20;99.90
29353;DHT22;16344;50.364;8.944;2023-10-08T08:27:01;18.20;99.90
29353;DHT22;16344;50.364;8.944;2023-10-08T08:29:33;18.20;99.90
29353;DHT22;16344;50.364;8.944;2023-10-08T08:32:10;18.30;99.90
29353;DHT22;16344;50.364;8.944;2023-10-08T08:34:38;18.30;99.90
29353;DHT22;16344;50.364;8.944;2023-10-08T08:37:03;18.40;99.90
29353;DHT22;16344;50.364;8.944;2023-10-08T08:39:29;18.50;99.90
29353;DHT22;16344;50.364;8.944;2023-10-08T08:42:01;18.40;99.90
29353;DHT22;16344;50.364;8.944;2023-10-08T08:44:31;18.40;99.90
29353;DHT22;16344;50.364;8.944;2023-10-08T08:47:00;18.30;99.90
29353;DHT22;16344;50.364;8.944;2023-10-08T08:49:34;18.40;99.90
29353;DHT22;16344;50.364;8.944;2023-10-08T08:52:00;18.40;99.90
29353;DHT22;16344;50.364;8.944;2023-10-08T08:54:27;18.40;99.90
29353;DHT22;16344;50.364;8.944;2023-10-08T08:56:56;18.30;99.90
29353;DHT22;16344;50.364;8.944;2023-10-08T08:59:22;18.30;99.90
29353;DHT22;16344;50.364;8.944;2023-10-08T09:01:48;18.30;99.90
29353;DHT22;16344;50.364;8.944;2023-10-08T09:04:16;18.40;99.90
29353;DHT22;16344;50.364;8.944;2023-10-08T09:06:42;18.40;99.90
29353;DHT22;16344;50.364;8.944;2023-10-08T09:09:10;18.50;99.90
29353;DHT22;16344;50.364;8.944;2023-10-08T09:11:51;18.60;99.90
29353;DHT22;16344;50.364;8.944;2023-10-08T09:14:21;18.60;99.90
29353;DHT22;16344;50.364;8.944;2023-10-08T09:16:47;18.70;99.90
29353;DHT22;16344;50.364;8.944;2023-10-08T09:19:13;18.80;99.90
29353;DHT22;16344;50.364;8.944;2023-10-08T09:24:33;18.90;99.90
29353;DHT22;16344;50.364;8.944;2023-10-08T09:27:00;18.90;99.90
29353;DHT22;16344;50.364;8.944;2023-10-08T09:29:27;19.00;99.90
29353;DHT22;16344;50.364;8.944;2023-10-08T09:31:59;19.00;99.90
29353;DHT22;16344;50.364;8.944;2023-10-08T09:34:31;19.00;99.90
29353;DHT22;16344;50.364;8.944;2023-10-08T09:36:59;19.00;99.90
29353;DHT22;16344;50.364;8.944;2023-10-08T09:39:26;19.10;99.90
29353;DHT22;16344;50.364;8.944;2023-10-08T09:41:56;19.10;99.90
29353;DHT22;16344;50.364;8.944;2023-10-08T09:44:23;19.30;99.90
29353;DHT22;16344;50.364;8.944;2023-10-08T09:46:53;19.30;99.90
29353;DHT22;16344;50.364;8.944;2023-10-08T09:49:28;19.30;99.90
29353;DHT22;16344;50.364;8.944;2023-10-08T09:51:56;19.40;99.90
29353;DHT22;16344;50.364;8.944;2023-10-08T09:54:26;19.40;99.90
29353;DHT22;16344;50.364;8.944;2023-10-08T09:56:57;19.50;99.90
29353;DHT22;16344;50.364;8.944;2023-10-08T09:59:27;19.50;99.90
29353;DHT22;16344;50.364;8.944;2023-10-08T10:01:53;19.50;99.90
29353;DHT22;16344;50.364;8.944;2023-10-08T10:04:25;19.50;99.90
29353;DHT22;16344;50.364;8.944;2023-10-08T10:06:50;19.40;99.90
29353;DHT22;16344;50.364;8.944;2023-10-08T10:09:23;19.60;99.90
29353;DHT22;16344;50.364;8.944;2023-10-08T10:11:50;19.60;99.90
29353;DHT22;16344;50.364;8.944;2023-10-08T10:14:16;19.60;99.90
29353;DHT22;16344;50.364;8.944;2023-10-08T10:16:43;19.80;99.90
29353;DHT22;16344;50.364;8.944;2023-10-08T10:19:20;19.80;99.90
29353;DHT22;16344;50.364;8.944;2023-10-08T10:21:46;19.90;99.90
29353;DHT22;16344;50.364;8.944;2023-10-08T10:24:32;19.80;99.90
29353;DHT22;16344;50.364;8.944;2023-10-08T10:27:15;20.00;99.90
29353;DHT22;16344;50.364;8.944;2023-10-08T10:29:44;20.00;99.90
29353;DHT22;16344;50.364;8.944;2023-10-08T10:32:15;20.10;99.90
29353;DHT22;16344;50.364;8.944;2023-10-08T10:34:42;20.30;99.90
29353;DHT22;16344;50.364;8.944;2023-10-08T10:37:08;20.50;99.90
29353;DHT22;16344;50.364;8.944;2023-10-08T10:39:35;20.70;93.80
29353;DHT22;16344;50.364;8.944;2023-10-08T10:42:05;20.80;42.60
29353;DHT22;16344;50.364;8.944;2023-10-08T10:44:33;20.80;37.20
29353;DHT22;16344;50.364;8.944;2023-10-08T10:47:02;20.70;39.50
29353;DHT22;16344;50.364;8.944;2023-10-08T10:49:44;20.70;64.90
29353;DHT22;16344;50.364;8.944;2023-10-08T10:52:24;20.80;47.40
29353;DHT22;16344;50.364;8.944;2023-10-08T10:55:11;20.70;29.00
29353;DHT22;16344;50.364;8.944;2023-10-08T10:57:40;20.70;43.40
29353;DHT22;16344;50.364;8.944;2023-10-08T11:00:07;20.60;31.50
29353;DHT22;16344;50.364;8.944;2023-10-08T11:02:56;20.50;71.90
29353;DHT22;16344;50.364;8.944;2023-10-08T11:05:32;20.60;70.60
29353;DHT22;16344;50.364;8.944;2023-10-08T11:08:02;20.50;99.90
29353;DHT22;16344;50.364;8.944;2023-10-08T11:10:33;20.60;92.70
29353;DHT22;16344;50.364;8.944;2023-10-08T11:12:59;20.70;98.00
29353;DHT22;16344;50.364;8.944;2023-10-08T11:15:29;20.80;95.50
29353;DHT22;16344;50.364;8.944;2023-10-08T11:18:10;20.80;88.80
29353;DHT22;16344;50.364;8.944;2023-10-08T11:20:36;20.90;55.10
29353;DHT22;16344;50.364;8.944;2023-10-08T11:23:06;20.90;19.90
29353;DHT22;16344;50.364;8.944;2023-10-08T11:25:57;20.80;19.30
29353;DHT22;16344;50.364;8.944;2023-10-08T11:28:32;20.80;56.40
29353;DHT22;16344;50.364;8.944;2023-10-08T11:31:03;20.90;45.20
29353;DHT22;16344;50.364;8.944;2023-10-08T11:33:40;20.90;19.20
29353;DHT22;16344;50.364;8.944;2023-10-08T11:36:07;20.80;25.60
29353;DHT22;16344;50.364;8.944;2023-10-08T11:38:44;20.70;33.30
29353;DHT22;16344;50.364;8.944;2023-10-08T11:41:14;20.80;79.60
29353;DHT22;16344;50.364;8.944;2023-10-08T11:43:54;20.80;47.30
29353;DHT22;16344;50.364;8.944;2023-10-08T11:46:27;20.70;21.90
29353;DHT22;16344;50.364;8.944;2023-10-08T11:48:54;20.70;33.30
29353;DHT22;16344;50.364;8.944;2023-10-08T11:51:24;20.80;61.00
29353;DHT22;16344;50.364;8.944;2023-10-08T11:53:50;20.90;53.90
29353;DHT22;16344;50.364;8.944;2023-10-08T11:56:17;20.90;21.90
29353;DHT22;16344;50.364;8.944;2023-10-08T11:58:46;21.00;16.70
29353;DHT22;16344;50.364;8.944;2023-10-08T12:01:12;21.00;10.70
29353;DHT22;16344;50.364;8.944;2023-10-08T12:03:42;20.90;23.10
29353;DHT22;16344;50.364;8.944;2023-10-08T12:06:10;20.90;52.20
29353;DHT22;16344;50.364;8.944;2023-10-08T12:08:49;20.90;49.50
29353;DHT22;16344;50.364;8.944;2023-10-08T12:11:19;20.90;57.80
29353;DHT22;16344;50.364;8.944;2023-10-08T12:13:48;21.00;54.40
29353;DHT22;16344;50.364;8.944;2023-10-08T12:16:15;20.90;31.00
29353;DHT22;16344;50.364;8.944;2023-10-08T12:18:47;20.90;37.10
29353;DHT22;16344;50.364;8.944;2023-10-08T12:21:24;20.90;48.70
29353;DHT22;16344;50.364;8.944;2023-10-08T12:23:50;20.90;23.90
29353;DHT22;16344;50.364;8.944;2023-10-08T12:26:17;21.00;29.80
29353;DHT22;16344;50.364;8.944;2023-10-08T12:28:45;21.00;58.20
29353;DHT22;16344;50.364;8.944;2023-10-08T12:31:14;21.00;90.20
29353;DHT22;16344;50.364;8.944;2023-10-08T12:33:46;21.00;99.80
29353;DHT22;16344;50.364;8.944;2023-10-08T12:36:12;21.10;89.30
29353;DHT22;16344;50.364;8.944;2023-10-08T12:38:42;21.10;58.30
29353;DHT22;16344;50.364;8.944;2023-10-08T12:41:11;21.10;82.40
29353;DHT22;16344;50.364;8.944;2023-10-08T12:43:38;21.10;70.30
29353;DHT22;16344;50.364;8.944;2023-10-08T12:46:04;21.10;73.50
29353;DHT22;16344;50.364;8.944;2023-10-08T12:48:36;20.90;90.40
29353;DHT22;16344;50.364;8.944;2023-10-08T12:51:02;20.80;72.40
29353;DHT22;16344;50.364;8.944;2023-10-08T12:53:31;20.80;67.50
29353;DHT22;16344;50.364;8.944;2023-10-08T12:56:00;20.80;99.90
29353;DHT22;16344;50.364;8.944;2023-10-08T12:58:35;20.90;99.90
29353;DHT22;16344;50.364;8.944;2023-10-08T13:01:10;21.00;99.90
29353;DHT22;16344;50.364;8.944;2023-10-08T13:03:37;21.00;78.40
29353;DHT22;16344;50.364;8.944;2023-10-08T13:06:08;21.10;71.70
29353;DHT22;16344;50.364;8.944;2023-10-08T13:08:36;21.10;55.10
29353;DHT22;16344;50.364;8.944;2023-10-08T13:11:02;21.20;75.40
29353;DHT22;16344;50.364;8.944;2023-10-08T13:13:32;21.10;73.00
29353;DHT22;16344;50.364;8.944;2023-10-08T13:15:59;21.10;60.40
29353;DHT22;16344;50.364;8.944;2023-10-08T13:18:28;21.00;90.50
29353;DHT22;16344;50.364;8.944;2023-10-08T13:20:54;21.00;83.60
29353;DHT22;16344;50.364;8.944;2023-10-08T13:23:20;20.90;99.90
29353;DHT22;16344;50.364;8.944;2023-10-08T13:25:52;20.90;93.10
29353;DHT22;16344;50.364;8.944;2023-10-08T13:28:24;21.00;98.70
29353;DHT22;16344;50.364;8.944;2023-10-08T13:30:54;21.10;84.10
29353;DHT22;16344;50.364;8.944;2023-10-08T13:33:21;21.00;66.90
29353;DHT22;16344;50.364;8.944;2023-10-08T13:35:48;21.00;44.40
29353;DHT22;16344;50.364;8.944;2023-10-08T13:38:18;20.90;85.40
29353;DHT22;16344;50.364;8.944;2023-10-08T13:40:49;21.00;43.60
29353;DHT22;16344;50.364;8.944;2023-10-08T13:43:33;21.00;43.60
29353;DHT22;16344;50.364;8.944;2023-10-08T13:46:06;21.10;33.30
29353;DHT22;16344;50.364;8.944;2023-10-08T13:48:35;21.00;48.90
29353;DHT22;16344;50.364;8.944;2023-10-08T13:51:02;20.90;39.10
29353;DHT22;16344;50.364;8.944;2023-10-08T13:53:32;20.80;62.50
29353;DHT22;16344;50.364;8.944;2023-10-08T13:56:01;20.80;78.60
29353;DHT22;16344;50.364;8.944;2023-10-08T13:58:28;20.90;77.50
29353;DHT22;16344;50.364;8.944;2023-10-08T14:00:56;20.90;59.60
29353;DHT22;16344;50.364;8.944;2023-10-08T14:03:21;20.80;66.80
29353;DHT22;16344;50.364;8.944;2023-10-08T14:05:50;20.80;71.60
29353;DHT22;16344;50.364;8.944;2023-10-08T14:08:19;20.80;99.90
29353;DHT22;16344;50.364;8.944;2023-10-08T14:10:46;20.90;86.10
29353;DHT22;16344;50.364;8.944;2023-10-08T14:13:14;20.90;66.20
29353;DHT22;16344;50.364;8.944;2023-10-08T14:15:47;20.80;69.20
29353;DHT22;16344;50.364;8.944;2023-10-08T14:18:24;20.80;84.70
29353;DHT22;16344;50.364;8.944;2023-10-08T14:20:55;20.70;99.90
29353;DHT22;16344;50.364;8.944;2023-10-08T14:23:22;20.60;99.90
29353;DHT22;16344;50.364;8.944;2023-10-08T14:25:49;20.60;99.90
29353;DHT22;16344;50.364;8.944;2023-10-08T14:28:17;20.60;99.90
29353;DHT22;16344;50.364;8.944;2023-10-08T14:31:08;20.50;99.90
29353;DHT22;16344;50.364;8.944;2023-10-08T14:33:34;20.50;99.90
29353;DHT22;16344;50.364;8.944;2023-10-08T14:36:09;20.30;99.90
29353;DHT22;16344;50.364;8.944;2023-10-08T14:38:53;20.20;99.90
29353;DHT22;16344;50.364;8.944;2023-10-08T14:41:37;20.00;99.90
29353;DHT22;16344;50.364;8.944;2023-10-08T14:44:21;20.00;99.90
29353;DHT22;16344;50.364;8.944;2023-10-08T14:46:49;20.00;99.90
29353;DHT22;16344;50.364;8.944;2023-10-08T14:49:16;19.90;99.90
29353;DHT22;16344;50.364;8.944;2023-10-08T14:51:41;19.70;99.90
29353;DHT22;16344;50.364;8.944;2023-10-08T14:54:07;19.50;99.90
29353;DHT22;16344;50.364;8.944;2023-10-08T14:56:34;19.50;99.90
29353;DHT22;16344;50.364;8.944;2023-10-08T14:59:01;19.40;99.90
29353;DHT22;16344;50.364;8.944;2023-10-08T15:01:27;19.40;99.90
29353;DHT22;16344;50.364;8.944;2023-10-08T15:03:53;19.40;99.90
29353;DHT22;16344;50.364;8.944;2023-10-08T15:06:18;19.30;99.90
29353;DHT22;16344;50.364;8.944;2023-10-08T15:08:46;19.30;99.90
29353;DHT22;16344;50.364;8.944;2023-10-08T15:11:11;19.20;99.90
29353;DHT22;16344;50.364;8.944;2023-10-08T15:13:37;19.10;99.90
29353;DHT22;16344;50.364;8.944;2023-10-08T15:16:06;19.00;99.90
29353;DHT22;16344;50.364;8.944;2023-10-08T15:18:31;19.00;99.90
29353;DHT22;16344;50.364;8.944;2023-10-08T15:20:58;19.00;99.90
29353;DHT22;16344;50.364;8.944;2023-10-08T15:23:24;19.00;99.90
29353;DHT22;16344;50.364;8.944;2023-10-08T15:25:53;18.90;99.90
29353;DHT22;16344;50.364;8.944;2023-10-08T15:28:18;18.70;99.90
29353;DHT22;16344;50.364;8.944;2023-10-08T15:30:44;18.70;99.90
29353;DHT22;16344;50.364;8.944;2023-10-08T15:33:10;18.60;99.90
29353;DHT22;16344;50.364;8.944;2023-10-08T15:35:37;18.70;99.90
29353;DHT22;16344;50.364;8.944;2023-10-08T15:38:03;18.80;99.90
29353;DHT22;16344;50.364;8.944;2023-10-08T15:40:29;18.60;99.90
29353;DHT22;16344;50.364;8.944;2023-10-08T15:42:56;18.60;99.90
29353;DHT22;16344;50.364;8.944;2023-10-08T15:45:23;18.60;99.90
29353;DHT22;16344;50.364;8.944;2023-10-08T15:47:50;18.50;99.90
29353;DHT22;16344;50.364;8.944;2023-10-08T15:50:16;18.40;99.90
29353;DHT22;16344;50.364;8.944;2023-10-08T15:52:42;18.50;99.90
29353;DHT22;16344;50.364;8.944;2023-10-08T15:55:08;18.50;99.90
29353;DHT22;16344;50.364;8.944;2023-10-08T15:57:34;18.50;99.90
29353;DHT22;16344;50.364;8.944;2023-10-08T15:59:59;18.50;99.90
29353;DHT22;16344;50.364;8.944;2023-10-08T16:02:25;18.60;99.90